sensor_id;sensor_type;location;lat;lon;timestamp;temperature;humidity
44229;DHT22;29904;51.058;5.378;2023-06-19T00:01:17;21.20;99.90
44229;DHT22;29904;51.058;5.378;2023-06-19T00:03:43;21.10;99.90
44229;DHT22;29904;51.058;5.378;2023-06-19T00:06:11;21.20;99.90
44229;DHT22;29904;51.058;5.378;2023-06-19T00:08:38;21.10;99.90
44229;DHT22;29904;51.058;5.378;2023-06-19T00:11:07;21.10;99.90
44229;DHT22;29904;51.058;5.378;2023-06-19T00:13:33;21.10;99.90
44229;DHT22;29904;51.058;5.378;2023-06-19T00:15:59;21.10;99.90
44229;DHT22;29904;51.058;5.378;2023-06-19T00:18:26;21.10;99.90
44229;DHT22;29904;51.058;5.378;2023-06-19T00:20:52;21.00;99.90
44229;DHT22;29904;51.058;5.378;2023-06-19T00:23:22;21.00;99.90
44229;DHT22;29904;51.058;5.378;2023-06-19T00:25:48;20.90;99.90
44229;DHT22;29904;51.058;5.378;2023-06-19T00:28:13;20.90;99.90
44229;DHT22;29904;51.058;5.378;2023-06-19T00:30:41;20.90;99.90
44229;DHT22;29904;51.058;5.378;2023-06-19T00:33:07;20.90;99.90
44229;DHT22;29904;51.058;5.378;2023-06-19T00:35:33;20.90;99.90
44229;DHT22;29904;51.058;5.378;2023-06-19T00:38:01;20.90;99.90
44229;DHT22;29904;51.058;5.378;2023-06-19T00:40:30;20.80;99.90
44229;DHT22;29904;51.058;5.378;2023-06-19T00:42:56;20.80;99.90
44229;DHT22;29904;51.058;5.378;2023-06-19T00:45:22;20.80;99.90
44229;DHT22;29904;51.058;5.378;2023-06-19T00:47:54;20.80;99.90
44229;DHT22;29904;51.058;5.378;2023-06-19T00:50:23;20.80;99.90
44229;DHT22;29904;51.058;5.378;2023-06-19T00:52:49;20.80;99.90
44229;DHT22;29904;51.058;5.378;2023-06-19T00:55:16;20.70;99.90
44229;DHT22;29904;51.058;5.378;2023-06-19T00:57:44;20.60;99.90
44229;DHT22;29904;51.058;5.378;2023-06-19T01:00:11;20.60;99.90
44229;DHT22;29904;51.058;5.378;2023-06-19T01:02:38;20.50;99.90
44229;DHT22;29904;51.058;5.378;2023-06-19T01:05:06;20.40;99.90
44229;DHT22;29904;51.058;5.378;2023-06-19T01:08:03;20.40;99.90
44229;DHT22;29904;51.058;5.378;2023-06-19T01:10:52;20.40;99.90
44229;DHT22;29904;51.058;5.378;2023-06-19T01:13:40;20.40;99.90
44229;DHT22;29904;51.058;5.378;2023-06-19T01:16:07;20.30;99.90
44229;DHT22;29904;51.058;5.378;2023-06-19T01:18:33;20.20;99.90
44229;DHT22;29904;51.058;5.378;2023-06-19T01:21:13;20.20;99.90
44229;DHT22;29904;51.058;5.378;2023-06-19T01:23:40;20.10;99.90
44229;DHT22;29904;51.058;5.378;2023-06-19T01:26:07;20.10;99.90
44229;DHT22;29904;51.058;5.378;2023-06-19T01:28:35;20.00;99.90
44229;DHT22;29904;51.058;5.378;2023-06-19T01:31:24;20.00;99.90
44229;DHT22;29904;51.058;5.378;2023-06-19T01:33:53;19.90;99.90
44229;DHT22;29904;51.058;5.378;2023-06-19T01:36:20;19.90;99.90
44229;DHT22;29904;51.058;5.378;2023-06-19T01:38:48;19.90;99.90
44229;DHT22;29904;51.058;5.378;2023-06-19T01:41:17;19.90;99.90
44229;DHT22;29904;51.058;5.378;2023-06-19T01:43:45;20.00;99.90
44229;DHT22;29904;51.058;5.378;2023-06-19T01:46:11;20.00;99.90
44229;DHT22;29904;51.058;5.378;2023-06-19T01:48:39;20.10;99.90
44229;DHT22;29904;51.058;5.378;2023-06-19T01:51:05;20.10;99.90
44229;DHT22;29904;51.058;5.378;2023-06-19T01:53:31;20.20;99.90
44229;DHT22;29904;51.058;5.378;2023-06-19T01:55:59;20.20;99.90
44229;DHT22;29904;51.058;5.378;2023-06-19T01:58:25;20.20;99.90
44229;DHT22;29904;51.058;5.378;2023-06-19T02:00:50;20.20;99.90
44229;DHT22;29904;51.058;5.378;2023-06-19T02:03:16;20.20;99.90
44229;DHT22;29904;51.058;5.378;2023-06-19T02:05:42;20.10;99.90
44229;DHT22;29904;51.058;5.378;2023-06-19T02:08:08;20.00;99.90
44229;DHT22;29904;51.058;5.378;2023-06-19T02:10:34;19.90;99.90
44229;DHT22;29904;51.058;5.378;2023-06-19T02:13:00;19.80;99.90
44229;DHT22;29904;51.058;5.378;2023-06-19T02:15:25;19.70;99.90
44229;DHT22;29904;51.058;5.378;2023-06-19T02:17:55;19.60;99.90
44229;DHT22;29904;51.058;5.378;2023-06-19T02:20:22;19.60;99.90
44229;DHT22;29904;51.058;5.378;2023-06-19T02:22:47;19.50;99.90
44229;DHT22;29904;51.058;5.378;2023-06-19T02:25:13;19.40;99.90
44229;DHT22;29904;51.058;5.378;2023-06-19T02:27:39;19.40;99.90
44229;DHT22;29904;51.058;5.378;2023-06-19T02:30:05;19.30;99.90
44229;DHT22;29904;51.058;5.378;2023-06-19T02:32:33;19.30;99.90
44229;DHT22;29904;51.058;5.378;2023-06-19T02:35:00;19.20;99.90
44229;DHT22;29904;51.058;5.378;2023-06-19T02:37:26;19.20;99.90
44229;DHT22;29904;51.058;5.378;2023-06-19T02:39:52;19.10;99.90
44229;DHT22;29904;51.058;5.378;2023-06-19T02:42:19;19.10;99.90
44229;DHT22;29904;51.058;5.378;2023-06-19T02:44:45;19.10;99.90
44229;DHT22;29904;51.058;5.378;2023-06-19T02:47:11;19.00;99.90
44229;DHT22;29904;51.058;5.378;2023-06-19T02:49:37;19.00;99.90
44229;DHT22;29904;51.058;5.378;2023-06-19T02:52:03;19.00;99.90
44229;DHT22;29904;51.058;5.378;2023-06-19T02:54:29;18.90;99.90
44229;DHT22;29904;51.058;5.378;2023-06-19T02:56:55;18.90;99.90
44229;DHT22;29904;51.058;5.378;2023-06-19T02:59:21;18.80;99.90
44229;DHT22;29904;51.058;5.378;2023-06-19T03:01:46;18.90;99.90
44229;DHT22;29904;51.058;5.378;2023-06-19T03:04:14;18.80;99.90
44229;DHT22;29904;51.058;5.378;2023-06-19T03:06:40;18.80;99.90
44229;DHT22;29904;51.058;5.378;2023-06-19T03:09:06;18.80;99.90
44229;DHT22;29904;51.058;5.378;2023-06-19T03:11:40;18.90;99.90
44229;DHT22;29904;51.058;5.378;2023-06-19T03:14:06;18.90;99.90
44229;DHT22;29904;51.058;5.378;2023-06-19T03:16:33;19.00;99.90
44229;DHT22;29904;51.058;5.378;2023-06-19T03:18:59;19.00;99.90
44229;DHT22;29904;51.058;5.378;2023-06-19T03:21:27;19.10;99.90
44229;DHT22;29904;51.058;5.378;2023-06-19T03:23:53;19.10;99.90
44229;DHT22;29904;51.058;5.378;2023-06-19T03:26:20;19.10;99.90
44229;DHT22;29904;51.058;5.378;2023-06-19T03:28:47;19.00;99.90
44229;DHT22;29904;51.058;5.378;2023-06-19T03:31:14;19.10;99.90
44229;DHT22;29904;51.058;5.378;2023-06-19T03:33:40;19.00;99.90
44229;DHT22;29904;51.058;5.378;2023-06-19T03:36:08;19.10;99.90
44229;DHT22;29904;51.058;5.378;2023-06-19T03:38:33;19.10;99.90
44229;DHT22;29904;51.058;5.378;2023-06-19T03:40:59;19.20;99.90
44229;DHT22;29904;51.058;5.378;2023-06-19T03:43:25;19.20;99.90
44229;DHT22;29904;51.058;5.378;2023-06-19T03:45:51;19.20;99.90
44229;DHT22;29904;51.058;5.378;2023-06-19T03:48:17;19.30;99.90
44229;DHT22;29904;51.058;5.378;2023-06-19T03:50:43;19.30;99.90
44229;DHT22;29904;51.058;5.378;2023-06-19T03:53:09;19.40;99.90
44229;DHT22;29904;51.058;5.378;2023-06-19T03:55:35;19.40;99.90
44229;DHT22;29904;51.058;5.378;2023-06-19T03:58:01;19.50;99.90
44229;DHT22;29904;51.058;5.378;2023-06-19T04:00:27;19.50;99.90
44229;DHT22;29904;51.058;5.378;2023-06-19T04:02:52;19.60;99.90
44229;DHT22;29904;51.058;5.378;2023-06-19T04:05:18;19.60;99.90
44229;DHT22;29904;51.058;5.378;2023-06-19T04:07:45;19.70;99.90
44229;DHT22;29904;51.058;5.378;2023-06-19T04:10:11;19.60;99.90
44229;DHT22;29904;51.058;5.378;2023-06-19T04:12:37;19.70;99.90
44229;DHT22;29904;51.058;5.378;2023-06-19T04:15:03;19.80;99.90
44229;DHT22;29904;51.058;5.378;2023-06-19T04:17:29;19.90;99.90
44229;DHT22;29904;51.058;5.378;2023-06-19T04:19:55;19.90;99.90
44229;DHT22;29904;51.058;5.378;2023-06-19T04:22:21;19.80;99.90
44229;DHT22;29904;51.058;5.378;2023-06-19T04:24:46;19.80;99.90
44229;DHT22;29904;51.058;5.378;2023-06-19T04:27:14;19.80;99.90
44229;DHT22;29904;51.058;5.378;2023-06-19T04:29:40;19.80;99.90
44229;DHT22;29904;51.058;5.378;2023-06-19T04:32:06;19.80;99.90
44229;DHT22;29904;51.058;5.378;2023-06-19T04:34:40;19.90;99.90
44229;DHT22;29904;51.058;5.378;2023-06-19T04:37:08;20.00;99.90
44229;DHT22;29904;51.058;5.378;2023-06-19T04:39:34;19.90;99.90
44229;DHT22;29904;51.058;5.378;2023-06-19T04:42:01;20.00;99.90
44229;DHT22;29904;51.058;5.378;2023-06-19T04:44:27;20.00;99.90
44229;DHT22;29904;51.058;5.378;2023-06-19T04:46:53;20.00;99.90
44229;DHT22;29904;51.058;5.378;2023-06-19T04:49:30;20.00;99.90
44229;DHT22;29904;51.058;5.378;2023-06-19T04:51:57;19.90;99.90
44229;DHT22;29904;51.058;5.378;2023-06-19T04:54:23;19.90;99.90
44229;DHT22;29904;51.058;5.378;2023-06-19T04:56:49;19.80;99.90
44229;DHT22;29904;51.058;5.378;2023-06-19T04:59:15;19.80;99.90
44229;DHT22;29904;51.058;5.378;2023-06-19T05:01:44;19.70;99.90
44229;DHT22;29904;51.058;5.378;2023-06-19T05:04:12;19.80;99.90
44229;DHT22;29904;51.058;5.378;2023-06-19T05:06:37;19.80;99.90
44229;DHT22;29904;51.058;5.378;2023-06-19T05:09:03;19.80;99.90
44229;DHT22;29904;51.058;5.378;2023-06-19T05:11:31;19.80;99.90
44229;DHT22;29904;51.058;5.378;2023-06-19T05:13:57;19.80;99.90
44229;DHT22;29904;51.058;5.378;2023-06-19T05:16:23;19.90;99.90
44229;DHT22;29904;51.058;5.378;2023-06-19T05:18:50;19.90;99.90
44229;DHT22;29904;51.058;5.378;2023-06-19T05:21:16;19.90;99.90
44229;DHT22;29904;51.058;5.378;2023-06-19T05:23:42;19.90;99.90
44229;DHT22;29904;51.058;5.378;2023-06-19T05:26:08;19.90;99.90
44229;DHT22;29904;51.058;5.378;2023-06-19T05:28:34;19.90;99.90
44229;DHT22;29904;51.058;5.378;2023-06-19T05:31:00;20.00;99.90
44229;DHT22;29904;51.058;5.378;2023-06-19T05:33:26;20.10;99.90
44229;DHT22;29904;51.058;5.378;2023-06-19T05:35:52;20.10;99.90
44229;DHT22;29904;51.058;5.378;2023-06-19T05:38:20;20.10;99.90
44229;DHT22;29904;51.058;5.378;2023-06-19T05:40:46;20.20;99.90
44229;DHT22;29904;51.058;5.378;2023-06-19T05:43:12;20.20;99.90
44229;DHT22;29904;51.058;5.378;2023-06-19T05:45:38;20.30;99.90
44229;DHT22;29904;51.058;5.378;2023-06-19T05:48:05;20.40;99.90
44229;DHT22;29904;51.058;5.378;2023-06-19T05:50:30;20.60;99.90
44229;DHT22;29904;51.058;5.378;2023-06-19T05:52:56;20.60;99.90
44229;DHT22;29904;51.058;5.378;2023-06-19T05:55:22;20.70;99.90
44229;DHT22;29904;51.058;5.378;2023-06-19T05:57:50;20.80;99.90
44229;DHT22;29904;51.058;5.378;2023-06-19T06:00:16;20.90;99.90
44229;DHT22;29904;51.058;5.378;2023-06-19T06:02:43;21.00;99.90
44229;DHT22;29904;51.058;5.378;2023-06-19T06:05:09;21.10;99.90
44229;DHT22;29904;51.058;5.378;2023-06-19T06:07:35;21.20;99.90
44229;DHT22;29904;51.058;5.378;2023-06-19T06:10:01;21.40;99.90
44229;DHT22;29904;51.058;5.378;2023-06-19T06:12:29;21.30;99.90
44229;DHT22;29904;51.058;5.378;2023-06-19T06:14:54;21.30;99.90
44229;DHT22;29904;51.058;5.378;2023-06-19T06:17:20;21.40;99.90
44229;DHT22;29904;51.058;5.378;2023-06-19T06:19:46;21.40;99.90
44229;DHT22;29904;51.058;5.378;2023-06-19T06:22:11;21.50;99.90
44229;DHT22;29904;51.058;5.378;2023-06-19T06:24:37;21.70;99.90
44229;DHT22;29904;51.058;5.378;2023-06-19T06:27:04;21.80;99.90
44229;DHT22;29904;51.058;5.378;2023-06-19T06:29:32;21.80;99.90
44229;DHT22;29904;51.058;5.378;2023-06-19T06:32:05;21.80;99.90
44229;DHT22;29904;51.058;5.378;2023-06-19T06:34:34;21.90;99.90
44229;DHT22;29904;51.058;5.378;2023-06-19T06:37:00;22.00;99.90
44229;DHT22;29904;51.058;5.378;2023-06-19T06:39:26;22.00;99.90
44229;DHT22;29904;51.058;5.378;2023-06-19T06:41:52;22.10;99.90
44229;DHT22;29904;51.058;5.378;2023-06-19T06:44:18;22.30;99.90
44229;DHT22;29904;51.058;5.378;2023-06-19T06:46:44;22.30;99.90
44229;DHT22;29904;51.058;5.378;2023-06-19T06:49:12;22.50;99.90
44229;DHT22;29904;51.058;5.378;2023-06-19T06:51:38;22.50;99.90
44229;DHT22;29904;51.058;5.378;2023-06-19T06:54:04;22.50;99.90
44229;DHT22;29904;51.058;5.378;2023-06-19T06:56:29;22.50;99.90
44229;DHT22;29904;51.058;5.378;2023-06-19T06:58:55;22.40;99.90
44229;DHT22;29904;51.058;5.378;2023-06-19T07:01:21;22.40;99.90
44229;DHT22;29904;51.058;5.378;2023-06-19T07:03:49;22.50;99.90
44229;DHT22;29904;51.058;5.378;2023-06-19T07:06:14;22.60;99.90
44229;DHT22;29904;51.058;5.378;2023-06-19T07:08:40;22.60;99.90
44229;DHT22;29904;51.058;5.378;2023-06-19T07:11:08;22.80;99.90
44229;DHT22;29904;51.058;5.378;2023-06-19T07:13:34;23.00;99.90
44229;DHT22;29904;51.058;5.378;2023-06-19T07:15:59;23.00;99.90
44229;DHT22;29904;51.058;5.378;2023-06-19T07:18:28;23.00;99.90
44229;DHT22;29904;51.058;5.378;2023-06-19T07:20:54;23.00;99.90
44229;DHT22;29904;51.058;5.378;2023-06-19T07:23:20;23.00;99.90
44229;DHT22;29904;51.058;5.378;2023-06-19T07:25:46;23.10;99.90
44229;DHT22;29904;51.058;5.378;2023-06-19T07:28:12;23.20;99.90
44229;DHT22;29904;51.058;5.378;2023-06-19T07:30:39;23.20;99.90
44229;DHT22;29904;51.058;5.378;2023-06-19T07:33:05;23.10;99.90
44229;DHT22;29904;51.058;5.378;2023-06-19T07:35:32;23.00;99.90
44229;DHT22;29904;51.058;5.378;2023-06-19T07:38:00;23.00;99.90
44229;DHT22;29904;51.058;5.378;2023-06-19T07:40:26;23.00;99.90
44229;DHT22;29904;51.058;5.378;2023-06-19T07:42:51;23.10;99.90
44229;DHT22;29904;51.058;5.378;2023-06-19T07:45:17;23.20;99.90
44229;DHT22;29904;51.058;5.378;2023-06-19T07:47:43;23.40;99.90
44229;DHT22;29904;51.058;5.378;2023-06-19T07:50:09;23.60;99.90
44229;DHT22;29904;51.058;5.378;2023-06-19T07:52:36;23.70;99.90
44229;DHT22;29904;51.058;5.378;2023-06-19T07:55:04;24.00;99.90
44229;DHT22;29904;51.058;5.378;2023-06-19T07:57:30;24.10;99.90
44229;DHT22;29904;51.058;5.378;2023-06-19T07:59:55;24.30;99.90
44229;DHT22;29904;51.058;5.378;2023-06-19T08:02:23;24.30;99.90
44229;DHT22;29904;51.058;5.378;2023-06-19T08:04:49;24.40;99.90
44229;DHT22;29904;51.058;5.378;2023-06-19T08:07:14;24.60;99.90
44229;DHT22;29904;51.058;5.378;2023-06-19T08:09:42;24.50;99.90
44229;DHT22;29904;51.058;5.378;2023-06-19T08:12:08;24.30;99.90
44229;DHT22;29904;51.058;5.378;2023-06-19T08:14:34;24.20;99.90
44229;DHT22;29904;51.058;5.378;2023-06-19T08:17:00;24.10;99.90
44229;DHT22;29904;51.058;5.378;2023-06-19T08:19:25;24.20;99.90
44229;DHT22;29904;51.058;5.378;2023-06-19T08:21:51;24.40;99.90
44229;DHT22;29904;51.058;5.378;2023-06-19T08:24:17;24.80;99.90
44229;DHT22;29904;51.058;5.378;2023-06-19T08:26:43;25.50;99.90
44229;DHT22;29904;51.058;5.378;2023-06-19T08:29:09;26.10;99.90
44229;DHT22;29904;51.058;5.378;2023-06-19T08:31:37;26.50;99.90
44229;DHT22;29904;51.058;5.378;2023-06-19T08:34:02;26.70;99.90
44229;DHT22;29904;51.058;5.378;2023-06-19T08:36:33;26.80;99.90
44229;DHT22;29904;51.058;5.378;2023-06-19T08:38:59;26.80;99.90
44229;DHT22;29904;51.058;5.378;2023-06-19T08:41:24;26.80;99.90
44229;DHT22;29904;51.058;5.378;2023-06-19T08:43:50;26.90;99.90
44229;DHT22;29904;51.058;5.378;2023-06-19T08:46:18;27.00;99.90
44229;DHT22;29904;51.058;5.378;2023-06-19T08:48:44;27.20;99.90
44229;DHT22;29904;51.058;5.378;2023-06-19T08:51:12;27.40;99.90
44229;DHT22;29904;51.058;5.378;2023-06-19T08:53:56;27.30;99.90
44229;DHT22;29904;51.058;5.378;2023-06-19T08:56:22;27.10;99.90
44229;DHT22;29904;51.058;5.378;2023-06-19T08:58:50;27.00;99.90
44229;DHT22;29904;51.058;5.378;2023-06-19T09:01:19;26.80;99.90
44229;DHT22;29904;51.058;5.378;2023-06-19T09:03:46;26.60;99.90
44229;DHT22;29904;51.058;5.378;2023-06-19T09:06:15;26.30;99.90
44229;DHT22;29904;51.058;5.378;2023-06-19T09:08:44;26.50;99.90
44229;DHT22;29904;51.058;5.378;2023-06-19T09:11:11;26.70;99.90
44229;DHT22;29904;51.058;5.378;2023-06-19T09:13:37;26.70;99.90
44229;DHT22;29904;51.058;5.378;2023-06-19T09:16:07;26.70;99.90
44229;DHT22;29904;51.058;5.378;2023-06-19T09:18:51;26.80;99.90
44229;DHT22;29904;51.058;5.378;2023-06-19T09:21:20;27.10;99.90
44229;DHT22;29904;51.058;5.378;2023-06-19T09:23:48;27.20;99.90
44229;DHT22;29904;51.058;5.378;2023-06-19T09:26:15;27.60;99.90
44229;DHT22;29904;51.058;5.378;2023-06-19T09:28:42;27.70;99.90
44229;DHT22;29904;51.058;5.378;2023-06-19T09:31:11;27.70;99.90
44229;DHT22;29904;51.058;5.378;2023-06-19T09:33:40;27.80;99.90
44229;DHT22;29904;51.058;5.378;2023-06-19T09:36:06;27.80;99.90
44229;DHT22;29904;51.058;5.378;2023-06-19T09:38:37;28.00;99.90
44229;DHT22;29904;51.058;5.378;2023-06-19T09:41:06;27.80;99.90
44229;DHT22;29904;51.058;5.378;2023-06-19T09:43:43;27.60;99.90
44229;DHT22;29904;51.058;5.378;2023-06-19T09:46:10;27.80;99.90
44229;DHT22;29904;51.058;5.378;2023-06-19T09:48:41;28.30;99.90
44229;DHT22;29904;51.058;5.378;2023-06-19T09:51:19;28.40;99.90
44229;DHT22;29904;51.058;5.378;2023-06-19T09:53:47;28.30;99.90
44229;DHT22;29904;51.058;5.378;2023-06-19T09:56:15;28.10;99.90
44229;DHT22;29904;51.058;5.378;2023-06-19T09:58:42;27.80;99.90
44229;DHT22;29904;51.058;5.378;2023-06-19T10:01:08;27.60;99.90
44229;DHT22;29904;51.058;5.378;2023-06-19T10:03:35;27.70;99.90
44229;DHT22;29904;51.058;5.378;2023-06-19T10:06:04;28.00;99.90
44229;DHT22;29904;51.058;5.378;2023-06-19T10:08:41;28.30;99.90
44229;DHT22;29904;51.058;5.378;2023-06-19T10:11:09;28.50;99.90
44229;DHT22;29904;51.058;5.378;2023-06-19T10:13:38;28.00;99.90
44229;DHT22;29904;51.058;5.378;2023-06-19T10:16:05;27.70;99.90
44229;DHT22;29904;51.058;5.378;2023-06-19T10:18:32;27.60;99.90
44229;DHT22;29904;51.058;5.378;2023-06-19T10:20:58;27.70;99.90
44229;DHT22;29904;51.058;5.378;2023-06-19T10:23:25;27.60;99.90
44229;DHT22;29904;51.058;5.378;2023-06-19T10:28:29;27.50;99.90
44229;DHT22;29904;51.058;5.378;2023-06-19T10:31:04;27.40;99.90
44229;DHT22;29904;51.058;5.378;2023-06-19T10:33:32;27.50;99.90
44229;DHT22;29904;51.058;5.378;2023-06-19T10:35:59;27.50;99.90
44229;DHT22;29904;51.058;5.378;2023-06-19T10:38:28;27.70;99.90
44229;DHT22;29904;51.058;5.378;2023-06-19T10:40:53;27.90;99.90
44229;DHT22;29904;51.058;5.378;2023-06-19T10:43:24;28.10;99.90
44229;DHT22;29904;51.058;5.378;2023-06-19T10:45:53;28.50;99.90
44229;DHT22;29904;51.058;5.378;2023-06-19T10:48:20;29.00;99.90
44229;DHT22;29904;51.058;5.378;2023-06-19T10:50:48;29.20;99.90
44229;DHT22;29904;51.058;5.378;2023-06-19T10:53:43;29.30;99.90
44229;DHT22;29904;51.058;5.378;2023-06-19T10:56:09;29.50;99.90
44229;DHT22;29904;51.058;5.378;2023-06-19T10:58:34;29.60;99.90
44229;DHT22;29904;51.058;5.378;2023-06-19T11:01:00;29.70;99.90
44229;DHT22;29904;51.058;5.378;2023-06-19T11:03:26;29.70;99.90
44229;DHT22;29904;51.058;5.378;2023-06-19T11:05:52;29.40;99.90
44229;DHT22;29904;51.058;5.378;2023-06-19T11:08:24;29.30;99.90
44229;DHT22;29904;51.058;5.378;2023-06-19T11:10:50;29.10;99.90
44229;DHT22;29904;51.058;5.378;2023-06-19T11:13:18;29.00;99.90
44229;DHT22;29904;51.058;5.378;2023-06-19T11:15:45;28.80;99.90
44229;DHT22;29904;51.058;5.378;2023-06-19T11:18:11;28.90;99.90
44229;DHT22;29904;51.058;5.378;2023-06-19T11:20:46;28.90;99.90
44229;DHT22;29904;51.058;5.378;2023-06-19T11:23:12;29.10;99.90
44229;DHT22;29904;51.058;5.378;2023-06-19T11:25:40;29.30;99.90
44229;DHT22;29904;51.058;5.378;2023-06-19T11:28:15;29.50;99.90
44229;DHT22;29904;51.058;5.378;2023-06-19T11:30:41;29.60;99.90
44229;DHT22;29904;51.058;5.378;2023-06-19T11:33:18;29.70;99.90
44229;DHT22;29904;51.058;5.378;2023-06-19T11:36:00;30.10;99.90
44229;DHT22;29904;51.058;5.378;2023-06-19T11:38:27;30.00;99.90
44229;DHT22;29904;51.058;5.378;2023-06-19T11:40:55;29.90;99.90
44229;DHT22;29904;51.058;5.378;2023-06-19T11:43:29;29.70;99.70
44229;DHT22;29904;51.058;5.378;2023-06-19T11:46:03;29.60;99.90
44229;DHT22;29904;51.058;5.378;2023-06-19T11:48:29;29.80;99.90
44229;DHT22;29904;51.058;5.378;2023-06-19T11:50:55;29.90;99.50
44229;DHT22;29904;51.058;5.378;2023-06-19T11:53:23;30.00;99.30
44229;DHT22;29904;51.058;5.378;2023-06-19T11:55:50;30.30;98.60
44229;DHT22;29904;51.058;5.378;2023-06-19T11:58:16;30.40;97.30
44229;DHT22;29904;51.058;5.378;2023-06-19T12:00:44;30.50;98.30
44229;DHT22;29904;51.058;5.378;2023-06-19T12:03:09;30.60;98.10
44229;DHT22;29904;51.058;5.378;2023-06-19T12:05:36;30.70;97.70
44229;DHT22;29904;51.058;5.378;2023-06-19T12:08:02;30.80;97.80
44229;DHT22;29904;51.058;5.378;2023-06-19T12:10:30;30.70;97.00
44229;DHT22;29904;51.058;5.378;2023-06-19T12:12:55;30.60;96.80
44229;DHT22;29904;51.058;5.378;2023-06-19T12:15:21;30.80;95.60
44229;DHT22;29904;51.058;5.378;2023-06-19T12:17:50;30.80;96.10
44229;DHT22;29904;51.058;5.378;2023-06-19T12:20:16;30.90;96.50
44229;DHT22;29904;51.058;5.378;2023-06-19T12:22:42;30.90;94.90
44229;DHT22;29904;51.058;5.378;2023-06-19T12:25:10;30.80;94.80
44229;DHT22;29904;51.058;5.378;2023-06-19T12:27:37;30.80;94.50
44229;DHT22;29904;51.058;5.378;2023-06-19T12:30:04;30.90;95.50
44229;DHT22;29904;51.058;5.378;2023-06-19T12:32:29;30.60;94.80
44229;DHT22;29904;51.058;5.378;2023-06-19T12:34:56;30.60;92.90
44229;DHT22;29904;51.058;5.378;2023-06-19T12:37:22;30.60;94.10
44229;DHT22;29904;51.058;5.378;2023-06-19T12:39:52;30.60;95.20
44229;DHT22;29904;51.058;5.378;2023-06-19T12:42:19;30.50;96.10
44229;DHT22;29904;51.058;5.378;2023-06-19T12:44:45;30.60;93.80
44229;DHT22;29904;51.058;5.378;2023-06-19T12:47:11;30.30;94.30
44229;DHT22;29904;51.058;5.378;2023-06-19T12:49:38;30.60;94.30
44229;DHT22;29904;51.058;5.378;2023-06-19T12:52:07;30.80;94.30
44229;DHT22;29904;51.058;5.378;2023-06-19T12:54:32;31.20;94.40
44229;DHT22;29904;51.058;5.378;2023-06-19T12:56:59;31.20;94.40
44229;DHT22;29904;51.058;5.378;2023-06-19T12:59:24;31.30;94.60
44229;DHT22;29904;51.058;5.378;2023-06-19T13:01:50;31.40;94.40
44229;DHT22;29904;51.058;5.378;2023-06-19T13:04:18;31.20;94.40
44229;DHT22;29904;51.058;5.378;2023-06-19T13:06:44;31.20;94.00
44229;DHT22;29904;51.058;5.378;2023-06-19T13:09:09;31.30;94.10
44229;DHT22;29904;51.058;5.378;2023-06-19T13:11:35;31.40;93.90
44229;DHT22;29904;51.058;5.378;2023-06-19T13:14:01;31.60;93.80
44229;DHT22;29904;51.058;5.378;2023-06-19T13:16:27;31.70;93.10
44229;DHT22;29904;51.058;5.378;2023-06-19T13:18:53;31.60;92.70
44229;DHT22;29904;51.058;5.378;2023-06-19T13:21:20;31.60;92.90
44229;DHT22;29904;51.058;5.378;2023-06-19T13:23:46;31.80;92.10
44229;DHT22;29904;51.058;5.378;2023-06-19T13:26:14;31.80;92.40
44229;DHT22;29904;51.058;5.378;2023-06-19T13:28:42;31.80;92.90
44229;DHT22;29904;51.058;5.378;2023-06-19T13:31:07;31.80;91.50
44229;DHT22;29904;51.058;5.378;2023-06-19T13:33:33;31.90;92.40
44229;DHT22;29904;51.058;5.378;2023-06-19T13:36:00;31.50;93.60
44229;DHT22;29904;51.058;5.378;2023-06-19T13:38:26;31.70;92.90
44229;DHT22;29904;51.058;5.378;2023-06-19T13:40:54;31.90;91.80
44229;DHT22;29904;51.058;5.378;2023-06-19T13:43:20;31.80;93.00
44229;DHT22;29904;51.058;5.378;2023-06-19T13:45:49;31.80;92.20
44229;DHT22;29904;51.058;5.378;2023-06-19T13:48:14;32.00;91.60
44229;DHT22;29904;51.058;5.378;2023-06-19T13:50:40;32.00;91.50
44229;DHT22;29904;51.058;5.378;2023-06-19T13:53:07;32.20;90.90
44229;DHT22;29904;51.058;5.378;2023-06-19T13:55:35;32.10;91.60
44229;DHT22;29904;51.058;5.378;2023-06-19T13:58:01;31.80;90.70
44229;DHT22;29904;51.058;5.378;2023-06-19T14:00:28;31.70;92.30
44229;DHT22;29904;51.058;5.378;2023-06-19T14:02:54;32.00;91.80
44229;DHT22;29904;51.058;5.378;2023-06-19T14:05:20;32.10;91.00
44229;DHT22;29904;51.058;5.378;2023-06-19T14:07:46;32.20;91.10
44229;DHT22;29904;51.058;5.378;2023-06-19T14:10:11;32.20;90.60
44229;DHT22;29904;51.058;5.378;2023-06-19T14:12:37;31.70;90.20
44229;DHT22;29904;51.058;5.378;2023-06-19T14:15:06;31.50;91.00
44229;DHT22;29904;51.058;5.378;2023-06-19T14:17:32;31.40;90.80
44229;DHT22;29904;51.058;5.378;2023-06-19T14:19:58;31.20;90.80
44229;DHT22;29904;51.058;5.378;2023-06-19T14:22:25;31.20;90.90
44229;DHT22;29904;51.058;5.378;2023-06-19T14:24:51;31.20;91.00
44229;DHT22;29904;51.058;5.378;2023-06-19T14:27:24;31.20;90.70
44229;DHT22;29904;51.058;5.378;2023-06-19T14:29:51;31.30;90.90
44229;DHT22;29904;51.058;5.378;2023-06-19T14:32:19;31.60;90.90
44229;DHT22;29904;51.058;5.378;2023-06-19T14:34:44;31.80;88.90
44229;DHT22;29904;51.058;5.378;2023-06-19T14:37:10;31.70;90.80
44229;DHT22;29904;51.058;5.378;2023-06-19T14:39:38;31.90;90.90
44229;DHT22;29904;51.058;5.378;2023-06-19T14:42:05;32.10;90.30
44229;DHT22;29904;51.058;5.378;2023-06-19T14:44:30;32.30;89.40
44229;DHT22;29904;51.058;5.378;2023-06-19T14:46:58;32.10;89.90
44229;DHT22;29904;51.058;5.378;2023-06-19T14:49:24;32.20;89.30
44229;DHT22;29904;51.058;5.378;2023-06-19T14:51:50;32.00;88.10
44229;DHT22;29904;51.058;5.378;2023-06-19T14:54:16;31.70;88.60
44229;DHT22;29904;51.058;5.378;2023-06-19T14:56:44;31.70;89.50
44229;DHT22;29904;51.058;5.378;2023-06-19T14:59:10;31.70;88.30
44229;DHT22;29904;51.058;5.378;2023-06-19T15:01:36;31.90;86.10
44229;DHT22;29904;51.058;5.378;2023-06-19T15:04:03;32.10;86.00
44229;DHT22;29904;51.058;5.378;2023-06-19T15:06:31;32.20;85.30
44229;DHT22;29904;51.058;5.378;2023-06-19T15:08:57;32.20;86.30
44229;DHT22;29904;51.058;5.378;2023-06-19T15:11:22;32.20;87.50
44229;DHT22;29904;51.058;5.378;2023-06-19T15:13:48;32.20;87.40
44229;DHT22;29904;51.058;5.378;2023-06-19T15:16:14;32.00;88.80
44229;DHT22;29904;51.058;5.378;2023-06-19T15:18:40;31.90;87.60
44229;DHT22;29904;51.058;5.378;2023-06-19T15:21:06;31.60;86.50
44229;DHT22;29904;51.058;5.378;2023-06-19T15:23:33;31.50;89.10
44229;DHT22;29904;51.058;5.378;2023-06-19T15:25:59;31.50;85.30
44229;DHT22;29904;51.058;5.378;2023-06-19T15:28:27;31.40;85.60
44229;DHT22;29904;51.058;5.378;2023-06-19T15:30:52;31.50;85.20
44229;DHT22;29904;51.058;5.378;2023-06-19T15:33:18;31.50;85.70